sensor_id;sensor_type;location;lat;lon;timestamp;temperature;humidity
43143;DHT22;28750;59.842;17.584;2023-07-13T00:01:54;15.60;99.90
43143;DHT22;28750;59.842;17.584;2023-07-13T00:04:23;15.60;99.90
43143;DHT22;28750;59.842;17.584;2023-07-13T00:06:52;15.60;99.90
43143;DHT22;28750;59.842;17.584;2023-07-13T00:09:20;15.50;99.90
43143;DHT22;28750;59.842;17.584;2023-07-13T00:11:52;15.50;99.90
43143;DHT22;28750;59.842;17.584;2023-07-13T00:14:20;15.60;99.90
43143;DHT22;28750;59.842;17.584;2023-07-13T00:16:47;15.60;99.90
43143;DHT22;28750;59.842;17.584;2023-07-13T00:19:15;15.80;99.90
43143;DHT22;28750;59.842;17.584;2023-07-13T00:21:42;15.90;99.90
43143;DHT22;28750;59.842;17.584;2023-07-13T00:24:16;15.90;99.90
43143;DHT22;28750;59.842;17.584;2023-07-13T00:26:49;15.80;99.90
43143;DHT22;28750;59.842;17.584;2023-07-13T00:29:16;15.90;99.90
43143;DHT22;28750;59.842;17.584;2023-07-13T00:31:43;15.90;99.90
43143;DHT22;28750;59.842;17.584;2023-07-13T00:34:11;15.90;99.90
43143;DHT22;28750;59.842;17.584;2023-07-13T00:36:39;15.90;99.90
43143;DHT22;28750;59.842;17.584;2023-07-13T00:39:06;15.80;99.90
43143;DHT22;28750;59.842;17.584;2023-07-13T00:41:33;15.80;99.90
43143;DHT22;28750;59.842;17.584;2023-07-13T00:44:02;15.80;99.90
43143;DHT22;28750;59.842;17.584;2023-07-13T00:46:32;15.80;99.90
43143;DHT22;28750;59.842;17.584;2023-07-13T00:49:04;15.70;99.90
43143;DHT22;28750;59.842;17.584;2023-07-13T00:51:37;15.80;99.90
43143;DHT22;28750;59.842;17.584;2023-07-13T00:54:10;15.70;99.90
43143;DHT22;28750;59.842;17.584;2023-07-13T00:56:39;15.60;99.90
43143;DHT22;28750;59.842;17.584;2023-07-13T00:59:10;15.60;99.90
43143;DHT22;28750;59.842;17.584;2023-07-13T01:01:38;15.50;99.90
43143;DHT22;28750;59.842;17.584;2023-07-13T01:04:06;15.50;99.90
43143;DHT22;28750;59.842;17.584;2023-07-13T01:06:36;15.40;99.90
43143;DHT22;28750;59.842;17.584;2023-07-13T01:09:04;15.40;99.90
43143;DHT22;28750;59.842;17.584;2023-07-13T01:11:33;15.40;99.90
43143;DHT22;28750;59.842;17.584;2023-07-13T01:14:01;15.50;99.90
43143;DHT22;28750;59.842;17.584;2023-07-13T01:16:34;15.40;99.90
43143;DHT22;28750;59.842;17.584;2023-07-13T01:19:05;15.40;99.90
43143;DHT22;28750;59.842;17.584;2023-07-13T01:21:34;15.40;99.90
43143;DHT22;28750;59.842;17.584;2023-07-13T01:24:03;15.40;99.90
43143;DHT22;28750;59.842;17.584;2023-07-13T01:26:31;15.30;99.90
43143;DHT22;28750;59.842;17.584;2023-07-13T01:28:59;15.30;99.90
43143;DHT22;28750;59.842;17.584;2023-07-13T01:31:26;15.10;99.90
43143;DHT22;28750;59.842;17.584;2023-07-13T01:33:53;15.10;99.90
43143;DHT22;28750;59.842;17.584;2023-07-13T01:36:21;15.20;99.90
43143;DHT22;28750;59.842;17.584;2023-07-13T01:38:48;15.10;99.90
43143;DHT22;28750;59.842;17.584;2023-07-13T01:41:15;15.10;99.90
43143;DHT22;28750;59.842;17.584;2023-07-13T01:43:42;15.10;99.90
43143;DHT22;28750;59.842;17.584;2023-07-13T01:46:10;15.00;99.90
43143;DHT22;28750;59.842;17.584;2023-07-13T01:48:37;15.10;99.90
43143;DHT22;28750;59.842;17.584;2023-07-13T01:51:04;15.10;99.90
43143;DHT22;28750;59.842;17.584;2023-07-13T01:53:31;15.10;99.90
43143;DHT22;28750;59.842;17.584;2023-07-13T01:55:58;15.10;99.90
43143;DHT22;28750;59.842;17.584;2023-07-13T01:58:26;15.10;99.90
43143;DHT22;28750;59.842;17.584;2023-07-13T02:00:53;15.10;99.90
43143;DHT22;28750;59.842;17.584;2023-07-13T02:03:20;15.10;99.90
43143;DHT22;28750;59.842;17.584;2023-07-13T02:05:47;15.10;99.90
43143;DHT22;28750;59.842;17.584;2023-07-13T02:08:14;15.00;99.90
43143;DHT22;28750;59.842;17.584;2023-07-13T02:10:42;15.00;99.90
43143;DHT22;28750;59.842;17.584;2023-07-13T02:13:09;15.00;99.90
43143;DHT22;28750;59.842;17.584;2023-07-13T02:15:39;14.90;99.90
43143;DHT22;28750;59.842;17.584;2023-07-13T02:18:07;14.90;99.90
43143;DHT22;28750;59.842;17.584;2023-07-13T02:20:34;14.90;99.90
43143;DHT22;28750;59.842;17.584;2023-07-13T02:23:02;14.90;99.90
43143;DHT22;28750;59.842;17.584;2023-07-13T02:25:29;14.90;99.90
43143;DHT22;28750;59.842;17.584;2023-07-13T02:27:56;14.90;99.90
43143;DHT22;28750;59.842;17.584;2023-07-13T02:30:24;15.00;99.90
43143;DHT22;28750;59.842;17.584;2023-07-13T02:32:51;14.90;99.90
43143;DHT22;28750;59.842;17.584;2023-07-13T02:35:18;14.80;99.90
43143;DHT22;28750;59.842;17.584;2023-07-13T02:37:46;14.80;99.90
43143;DHT22;28750;59.842;17.584;2023-07-13T02:40:13;14.80;99.90
43143;DHT22;28750;59.842;17.584;2023-07-13T02:42:41;14.80;99.90
43143;DHT22;28750;59.842;17.584;2023-07-13T02:45:09;14.80;99.90
43143;DHT22;28750;59.842;17.584;2023-07-13T02:47:39;14.70;99.90
43143;DHT22;28750;59.842;17.584;2023-07-13T02:50:07;14.70;99.90
43143;DHT22;28750;59.842;17.584;2023-07-13T02:52:35;14.70;99.90
43143;DHT22;28750;59.842;17.584;2023-07-13T02:55:02;14.70;99.90
43143;DHT22;28750;59.842;17.584;2023-07-13T02:57:29;14.80;99.90
43143;DHT22;28750;59.842;17.584;2023-07-13T02:59:58;14.80;99.90
43143;DHT22;28750;59.842;17.584;2023-07-13T03:02:25;14.80;99.90
43143;DHT22;28750;59.842;17.584;2023-07-13T03:04:55;14.80;99.90
43143;DHT22;28750;59.842;17.584;2023-07-13T03:07:22;14.70;99.90
43143;DHT22;28750;59.842;17.584;2023-07-13T03:09:57;14.80;99.90
43143;DHT22;28750;59.842;17.584;2023-07-13T03:12:25;14.80;99.90
43143;DHT22;28750;59.842;17.584;2023-07-13T03:14:52;14.80;99.90
43143;DHT22;28750;59.842;17.584;2023-07-13T03:17:19;14.90;99.90
43143;DHT22;28750;59.842;17.584;2023-07-13T03:19:47;14.80;99.90
43143;DHT22;28750;59.842;17.584;2023-07-13T03:22:17;14.90;99.90
43143;DHT22;28750;59.842;17.584;2023-07-13T03:24:45;14.90;99.90
43143;DHT22;28750;59.842;17.584;2023-07-13T03:27:13;14.90;99.90
43143;DHT22;28750;59.842;17.584;2023-07-13T03:29:40;15.00;99.90
43143;DHT22;28750;59.842;17.584;2023-07-13T03:32:07;15.10;99.90
43143;DHT22;28750;59.842;17.584;2023-07-13T03:34:34;15.10;99.90
43143;DHT22;28750;59.842;17.584;2023-07-13T03:37:02;15.30;99.90
43143;DHT22;28750;59.842;17.584;2023-07-13T03:39:29;15.30;99.90
43143;DHT22;28750;59.842;17.584;2023-07-13T03:41:56;15.30;99.90
43143;DHT22;28750;59.842;17.584;2023-07-13T03:44:24;15.30;99.90
43143;DHT22;28750;59.842;17.584;2023-07-13T03:46:51;15.30;99.90
43143;DHT22;28750;59.842;17.584;2023-07-13T03:49:18;15.40;99.90
43143;DHT22;28750;59.842;17.584;2023-07-13T03:51:45;15.40;99.90
43143;DHT22;28750;59.842;17.584;2023-07-13T03:54:12;15.50;99.90
43143;DHT22;28750;59.842;17.584;2023-07-13T03:56:40;15.60;99.90
43143;DHT22;28750;59.842;17.584;2023-07-13T03:59:07;15.60;99.90
43143;DHT22;28750;59.842;17.584;2023-07-13T04:01:34;15.60;99.90
43143;DHT22;28750;59.842;17.584;2023-07-13T04:04:01;15.60;99.90
43143;DHT22;28750;59.842;17.584;2023-07-13T04:06:29;15.60;99.90
43143;DHT22;28750;59.842;17.584;2023-07-13T04:08:59;15.70;99.90
43143;DHT22;28750;59.842;17.584;2023-07-13T04:11:29;15.70;99.90
43143;DHT22;28750;59.842;17.584;2023-07-13T04:13:57;15.80;99.90
43143;DHT22;28750;59.842;17.584;2023-07-13T04:16:24;15.80;99.90
43143;DHT22;28750;59.842;17.584;2023-07-13T04:18:52;15.80;99.90
43143;DHT22;28750;59.842;17.584;2023-07-13T04:21:20;15.90;99.90
43143;DHT22;28750;59.842;17.584;2023-07-13T04:23:48;15.90;99.90
43143;DHT22;28750;59.842;17.584;2023-07-13T04:26:15;16.00;99.90
43143;DHT22;28750;59.842;17.584;2023-07-13T04:28:42;16.20;99.90
43143;DHT22;28750;59.842;17.584;2023-07-13T04:31:09;16.30;99.90
43143;DHT22;28750;59.842;17.584;2023-07-13T04:33:37;16.40;99.90
43143;DHT22;28750;59.842;17.584;2023-07-13T04:36:04;16.20;99.90
43143;DHT22;28750;59.842;17.584;2023-07-13T04:38:33;16.20;99.90
43143;DHT22;28750;59.842;17.584;2023-07-13T04:41:02;16.40;99.90
43143;DHT22;28750;59.842;17.584;2023-07-13T04:43:31;16.30;99.90
43143;DHT22;28750;59.842;17.584;2023-07-13T04:46:04;16.30;99.90
43143;DHT22;28750;59.842;17.584;2023-07-13T04:48:31;16.10;99.90
43143;DHT22;28750;59.842;17.584;2023-07-13T04:50:59;16.10;99.90
43143;DHT22;28750;59.842;17.584;2023-07-13T04:53:27;16.60;99.90
43143;DHT22;28750;59.842;17.584;2023-07-13T04:55:55;16.60;99.90
43143;DHT22;28750;59.842;17.584;2023-07-13T04:58:25;16.60;99.90
43143;DHT22;28750;59.842;17.584;2023-07-13T05:00:53;16.80;99.90
43143;DHT22;28750;59.842;17.584;2023-07-13T05:03:26;16.70;99.90
43143;DHT22;28750;59.842;17.584;2023-07-13T05:05:57;16.50;99.90
43143;DHT22;28750;59.842;17.584;2023-07-13T05:08:25;16.60;99.90
43143;DHT22;28750;59.842;17.584;2023-07-13T05:10:52;16.70;99.90
43143;DHT22;28750;59.842;17.584;2023-07-13T05:13:20;16.90;99.90
43143;DHT22;28750;59.842;17.584;2023-07-13T05:15:55;17.30;99.90
43143;DHT22;28750;59.842;17.584;2023-07-13T05:18:22;16.60;99.90
43143;DHT22;28750;59.842;17.584;2023-07-13T05:21:02;16.60;99.90
43143;DHT22;28750;59.842;17.584;2023-07-13T05:23:30;16.70;99.90
43143;DHT22;28750;59.842;17.584;2023-07-13T05:25:58;16.90;99.90
43143;DHT22;28750;59.842;17.584;2023-07-13T05:28:26;17.10;99.90
43143;DHT22;28750;59.842;17.584;2023-07-13T05:30:54;17.10;99.90
43143;DHT22;28750;59.842;17.584;2023-07-13T05:33:21;16.80;99.90
43143;DHT22;28750;59.842;17.584;2023-07-13T05:35:48;16.50;99.90
43143;DHT22;28750;59.842;17.584;2023-07-13T05:38:15;16.50;99.90
43143;DHT22;28750;59.842;17.584;2023-07-13T05:40:44;16.40;99.90
43143;DHT22;28750;59.842;17.584;2023-07-13T05:43:11;16.50;99.90
43143;DHT22;28750;59.842;17.584;2023-07-13T05:45:39;16.30;99.90
43143;DHT22;28750;59.842;17.584;2023-07-13T05:48:06;16.40;99.90
43143;DHT22;28750;59.842;17.584;2023-07-13T05:50:33;16.20;99.90
43143;DHT22;28750;59.842;17.584;2023-07-13T05:53:01;16.20;99.90
43143;DHT22;28750;59.842;17.584;2023-07-13T05:55:28;16.30;99.90
43143;DHT22;28750;59.842;17.584;2023-07-13T05:57:55;16.30;99.90
43143;DHT22;28750;59.842;17.584;2023-07-13T06:00:24;16.30;99.90
43143;DHT22;28750;59.842;17.584;2023-07-13T06:02:51;16.30;99.90
43143;DHT22;28750;59.842;17.584;2023-07-13T06:05:18;16.10;99.90
43143;DHT22;28750;59.842;17.584;2023-07-13T06:07:45;16.30;99.90
43143;DHT22;28750;59.842;17.584;2023-07-13T06:10:12;16.20;99.90
43143;DHT22;28750;59.842;17.584;2023-07-13T06:12:39;16.30;99.90
43143;DHT22;28750;59.842;17.584;2023-07-13T06:15:07;16.50;99.90
43143;DHT22;28750;59.842;17.584;2023-07-13T06:17:34;16.40;99.90
43143;DHT22;28750;59.842;17.584;2023-07-13T06:20:02;16.40;99.90
43143;DHT22;28750;59.842;17.584;2023-07-13T06:22:29;16.20;99.90
43143;DHT22;28750;59.842;17.584;2023-07-13T06:24:56;16.30;99.90
43143;DHT22;28750;59.842;17.584;2023-07-13T06:27:23;16.60;99.90
43143;DHT22;28750;59.842;17.584;2023-07-13T06:29:51;16.60;99.60
43143;DHT22;28750;59.842;17.584;2023-07-13T06:32:18;16.60;1.00
43143;DHT22;28750;59.842;17.584;2023-07-13T06:34:45;16.70;1.00
43143;DHT22;28750;59.842;17.584;2023-07-13T06:37:12;16.60;99.90
43143;DHT22;28750;59.842;17.584;2023-07-13T06:39:39;16.70;99.90
43143;DHT22;28750;59.842;17.584;2023-07-13T06:42:07;16.60;99.90
43143;DHT22;28750;59.842;17.584;2023-07-13T06:44:34;16.60;1.00
43143;DHT22;28750;59.842;17.584;2023-07-13T06:47:01;16.30;99.90
43143;DHT22;28750;59.842;17.584;2023-07-13T06:49:28;16.20;1.00
43143;DHT22;28750;59.842;17.584;2023-07-13T06:51:56;16.60;99.90
43143;DHT22;28750;59.842;17.584;2023-07-13T06:54:23;16.70;99.90
43143;DHT22;28750;59.842;17.584;2023-07-13T06:56:50;16.60;99.90
43143;DHT22;28750;59.842;17.584;2023-07-13T06:59:18;16.70;1.00
43143;DHT22;28750;59.842;17.584;2023-07-13T07:01:45;16.80;1.00
43143;DHT22;28750;59.842;17.584;2023-07-13T07:04:12;17.10;99.90
43143;DHT22;28750;59.842;17.584;2023-07-13T07:06:40;17.00;99.90
43143;DHT22;28750;59.842;17.584;2023-07-13T07:09:07;16.90;97.30
43143;DHT22;28750;59.842;17.584;2023-07-13T07:11:34;17.10;79.70
43143;DHT22;28750;59.842;17.584;2023-07-13T07:14:02;17.10;45.90
43143;DHT22;28750;59.842;17.584;2023-07-13T07:16:29;17.10;1.00
43143;DHT22;28750;59.842;17.584;2023-07-13T07:18:56;17.10;99.90
43143;DHT22;28750;59.842;17.584;2023-07-13T07:21:23;16.90;99.90
43143;DHT22;28750;59.842;17.584;2023-07-13T07:23:52;17.70;99.90
43143;DHT22;28750;59.842;17.584;2023-07-13T07:26:19;17.40;99.90
43143;DHT22;28750;59.842;17.584;2023-07-13T07:28:46;17.40;99.90
43143;DHT22;28750;59.842;17.584;2023-07-13T07:31:14;17.80;99.90
43143;DHT22;28750;59.842;17.584;2023-07-13T07:33:41;17.70;99.90
43143;DHT22;28750;59.842;17.584;2023-07-13T07:36:08;17.90;85.20
43143;DHT22;28750;59.842;17.584;2023-07-13T07:38:35;18.20;1.00
43143;DHT22;28750;59.842;17.584;2023-07-13T07:41:04;18.20;99.90
43143;DHT22;28750;59.842;17.584;2023-07-13T07:43:31;18.50;98.90
43143;DHT22;28750;59.842;17.584;2023-07-13T07:45:59;18.90;99.90
43143;DHT22;28750;59.842;17.584;2023-07-13T07:48:26;19.70;99.90
43143;DHT22;28750;59.842;17.584;2023-07-13T07:50:53;19.60;99.90
43143;DHT22;28750;59.842;17.584;2023-07-13T07:53:20;19.00;1.00
43143;DHT22;28750;59.842;17.584;2023-07-13T07:55:48;18.90;14.30
43143;DHT22;28750;59.842;17.584;2023-07-13T07:58:15;18.60;99.90
43143;DHT22;28750;59.842;17.584;2023-07-13T08:00:42;19.30;99.90
43143;DHT22;28750;59.842;17.584;2023-07-13T08:03:10;19.10;1.00
43143;DHT22;28750;59.842;17.584;2023-07-13T08:05:37;19.20;99.90
43143;DHT22;28750;59.842;17.584;2023-07-13T08:08:04;19.60;1.00
43143;DHT22;28750;59.842;17.584;2023-07-13T08:10:31;19.70;99.90
43143;DHT22;28750;59.842;17.584;2023-07-13T08:12:58;19.60;99.90
43143;DHT22;28750;59.842;17.584;2023-07-13T08:15:26;19.90;99.90
43143;DHT22;28750;59.842;17.584;2023-07-13T08:17:53;19.10;83.30
43143;DHT22;28750;59.842;17.584;2023-07-13T08:20:20;19.20;1.00
43143;DHT22;28750;59.842;17.584;2023-07-13T08:22:48;18.90;1.00
43143;DHT22;28750;59.842;17.584;2023-07-13T08:25:15;18.90;1.00
43143;DHT22;28750;59.842;17.584;2023-07-13T08:27:42;19.90;44.90
43143;DHT22;28750;59.842;17.584;2023-07-13T08:30:10;20.10;1.00
43143;DHT22;28750;59.842;17.584;2023-07-13T08:32:37;19.60;1.00
43143;DHT22;28750;59.842;17.584;2023-07-13T08:35:05;20.20;1.00
43143;DHT22;28750;59.842;17.584;2023-07-13T08:37:33;20.90;1.00
43143;DHT22;28750;59.842;17.584;2023-07-13T08:40:00;19.80;99.90
43143;DHT22;28750;59.842;17.584;2023-07-13T08:42:39;20.10;99.90
43143;DHT22;28750;59.842;17.584;2023-07-13T08:47:47;20.20;99.90
43143;DHT22;28750;59.842;17.584;2023-07-13T08:50:18;19.50;99.90
43143;DHT22;28750;59.842;17.584;2023-07-13T08:52:46;20.00;99.90
43143;DHT22;28750;59.842;17.584;2023-07-13T08:57:47;19.30;16.30
43143;DHT22;28750;59.842;17.584;2023-07-13T09:00:15;19.70;99.80
43143;DHT22;28750;59.842;17.584;2023-07-13T09:03:02;19.90;1.30
43143;DHT22;28750;59.842;17.584;2023-07-13T09:05:35;19.40;10.00
43143;DHT22;28750;59.842;17.584;2023-07-13T09:11:02;18.90;99.90
43143;DHT22;28750;59.842;17.584;2023-07-13T09:13:44;18.90;99.90
43143;DHT22;28750;59.842;17.584;2023-07-13T09:16:13;18.90;99.90
43143;DHT22;28750;59.842;17.584;2023-07-13T09:18:56;18.70;37.30
43143;DHT22;28750;59.842;17.584;2023-07-13T09:21:33;18.60;1.00
43143;DHT22;28750;59.842;17.584;2023-07-13T09:24:35;18.50;23.40
43143;DHT22;28750;59.842;17.584;2023-07-13T09:27:13;18.60;88.00
43143;DHT22;28750;59.842;17.584;2023-07-13T09:29:47;18.70;1.00
43143;DHT22;28750;59.842;17.584;2023-07-13T09:32:18;18.70;1.00
43143;DHT22;28750;59.842;17.584;2023-07-13T09:34:54;18.90;1.00
43143;DHT22;28750;59.842;17.584;2023-07-13T09:37:32;18.70;99.90
43143;DHT22;28750;59.842;17.584;2023-07-13T09:40:01;18.60;1.00
43143;DHT22;28750;59.842;17.584;2023-07-13T09:42:31;18.60;77.50
43143;DHT22;28750;59.842;17.584;2023-07-13T09:45:01;19.10;99.90
43143;DHT22;28750;59.842;17.584;2023-07-13T09:47:38;20.00;25.00
43143;DHT22;28750;59.842;17.584;2023-07-13T09:50:15;20.60;99.90
43143;DHT22;28750;59.842;17.584;2023-07-13T09:52:45;20.10;60.10
43143;DHT22;28750;59.842;17.584;2023-07-13T09:55:34;19.90;1.00
43143;DHT22;28750;59.842;17.584;2023-07-13T09:58:22;19.80;99.90
43143;DHT22;28750;59.842;17.584;2023-07-13T10:01:00;19.50;99.90
43143;DHT22;28750;59.842;17.584;2023-07-13T10:03:30;20.00;1.00
43143;DHT22;28750;59.842;17.584;2023-07-13T10:06:18;20.00;99.90
43143;DHT22;28750;59.842;17.584;2023-07-13T10:08:48;20.70;1.00
43143;DHT22;28750;59.842;17.584;2023-07-13T10:11:22;20.30;1.00
43143;DHT22;28750;59.842;17.584;2023-07-13T10:13:53;19.90;1.00
43143;DHT22;28750;59.842;17.584;2023-07-13T10:16:24;20.00;1.00
43143;DHT22;28750;59.842;17.584;2023-07-13T10:18:59;20.10;1.00
43143;DHT22;28750;59.842;17.584;2023-07-13T10:21:32;19.40;1.00
43143;DHT22;28750;59.842;17.584;2023-07-13T10:24:12;19.30;1.00
43143;DHT22;28750;59.842;17.584;2023-07-13T10:26:48;19.40;62.80
43143;DHT22;28750;59.842;17.584;2023-07-13T10:29:16;19.90;72.40
43143;DHT22;28750;59.842;17.584;2023-07-13T10:31:45;19.90;43.20
43143;DHT22;28750;59.842;17.584;2023-07-13T10:34:13;20.00;1.00
43143;DHT22;28750;59.842;17.584;2023-07-13T10:36:45;20.70;29.20
43143;DHT22;28750;59.842;17.584;2023-07-13T10:39:21;20.80;99.90
43143;DHT22;28750;59.842;17.584;2023-07-13T10:41:58;20.60;1.00
43143;DHT22;28750;59.842;17.584;2023-07-13T10:44:29;20.50;99.90
43143;DHT22;28750;59.842;17.584;2023-07-13T10:47:02;21.60;99.90
43143;DHT22;28750;59.842;17.584;2023-07-13T10:49:32;21.90;99.90
43143;DHT22;28750;59.842;17.584;2023-07-13T10:52:01;22.10;99.20
43143;DHT22;28750;59.842;17.584;2023-07-13T10:54:32;22.50;1.00
43143;DHT22;28750;59.842;17.584;2023-07-13T10:57:20;21.90;1.00
43143;DHT22;28750;59.842;17.584;2023-07-13T11:00:16;21.70;1.00
43143;DHT22;28750;59.842;17.584;2023-07-13T11:02:57;20.90;1.00
43143;DHT22;28750;59.842;17.584;2023-07-13T11:05:32;21.50;1.00
43143;DHT22;28750;59.842;17.584;2023-07-13T11:08:20;21.90;99.90
43143;DHT22;28750;59.842;17.584;2023-07-13T11:10:55;22.30;1.00
43143;DHT22;28750;59.842;17.584;2023-07-13T11:13:56;21.10;99.90
43143;DHT22;28750;59.842;17.584;2023-07-13T11:16:38;21.10;1.00
43143;DHT22;28750;59.842;17.584;2023-07-13T11:25:02;23.20;1.00
43143;DHT22;28750;59.842;17.584;2023-07-13T11:31:14;23.30;99.90
43143;DHT22;28750;59.842;17.584;2023-07-13T11:38:44;23.40;99.90
43143;DHT22;28750;59.842;17.584;2023-07-13T11:41:27;23.80;99.90
43143;DHT22;28750;59.842;17.584;2023-07-13T11:44:06;23.80;99.90
43143;DHT22;28750;59.842;17.584;2023-07-13T11:46:34;23.10;99.90
43143;DHT22;28750;59.842;17.584;2023-07-13T11:49:05;22.20;99.90
43143;DHT22;28750;59.842;17.584;2023-07-13T11:51:35;22.80;99.90
43143;DHT22;28750;59.842;17.584;2023-07-13T11:54:06;24.10;99.90
43143;DHT22;28750;59.842;17.584;2023-07-13T11:56:33;23.60;99.90
43143;DHT22;28750;59.842;17.584;2023-07-13T11:59:06;24.20;99.90
43143;DHT22;28750;59.842;17.584;2023-07-13T12:01:36;23.10;99.90
43143;DHT22;28750;59.842;17.584;2023-07-13T12:04:18;23.20;99.90
43143;DHT22;28750;59.842;17.584;2023-07-13T12:06:47;23.10;99.90
43143;DHT22;28750;59.842;17.584;2023-07-13T12:09:21;23.00;99.90
43143;DHT22;28750;59.842;17.584;2023-07-13T12:11:51;23.40;99.90
43143;DHT22;28750;59.842;17.584;2023-07-13T12:14:18;23.70;99.90
43143;DHT22;28750;59.842;17.584;2023-07-13T12:16:46;23.90;99.90
43143;DHT22;28750;59.842;17.584;2023-07-13T12:19:23;23.60;99.90
43143;DHT22;28750;59.842;17.584;2023-07-13T12:21:52;23.30;99.90
43143;DHT22;28750;59.842;17.584;2023-07-13T12:24:21;23.00;99.90
43143;DHT22;28750;59.842;17.584;2023-07-13T12:29:20;23.80;99.90
43143;DHT22;28750;59.842;17.584;2023-07-13T12:31:49;23.50;99.90
43143;DHT22;28750;59.842;17.584;2023-07-13T12:34:22;23.40;99.90
43143;DHT22;28750;59.842;17.584;2023-07-13T12:36:53;23.00;99.90
43143;DHT22;28750;59.842;17.584;2023-07-13T12:39:38;24.00;99.90
43143;DHT22;28750;59.842;17.584;2023-07-13T12:45:18;23.30;99.90
43143;DHT22;28750;59.842;17.584;2023-07-13T12:47:49;22.90;99.90
43143;DHT22;28750;59.842;17.584;2023-07-13T12:50:19;24.30;99.90
43143;DHT22;28750;59.842;17.584;2023-07-13T12:52:56;24.50;99.90
43143;DHT22;28750;59.842;17.584;2023-07-13T12:55:23;24.60;99.90
43143;DHT22;28750;59.842;17.584;2023-07-13T12:57:53;24.30;99.90
43143;DHT22;28750;59.842;17.584;2023-07-13T13:00:25;23.80;99.00
43143;DHT22;28750;59.842;17.584;2023-07-13T13:02:56;23.50;91.30
43143;DHT22;28750;59.842;17.584;2023-07-13T13:05:26;23.70;99.90
43143;DHT22;28750;59.842;17.584;2023-07-13T13:07:53;24.00;99.90
43143;DHT22;28750;59.842;17.584;2023-07-13T13:10:20;23.30;99.90
43143;DHT22;28750;59.842;17.584;2023-07-13T13:12:48;24.00;99.90
43143;DHT22;28750;59.842;17.584;2023-07-13T13:15:15;24.50;71.30
43143;DHT22;28750;59.842;17.584;2023-07-13T13:17:42;24.70;50.90
43143;DHT22;28750;59.842;17.584;2023-07-13T13:20:19;24.80;23.40
43143;DHT22;28750;59.842;17.584;2023-07-13T13:22:47;24.60;79.10
43143;DHT22;28750;59.842;17.584;2023-07-13T13:25:15;25.00;30.40
43143;DHT22;28750;59.842;17.584;2023-07-13T13:27:44;24.60;17.70
43143;DHT22;28750;59.842;17.584;2023-07-13T13:30:13;24.60;16.10
43143;DHT22;28750;59.842;17.584;2023-07-13T13:32:46;24.40;1.00
43143;DHT22;28750;59.842;17.584;2023-07-13T13:35:18;24.20;22.50
43143;DHT22;28750;59.842;17.584;2023-07-13T13:37:46;24.60;1.00
43143;DHT22;28750;59.842;17.584;2023-07-13T13:40:18;24.70;2.20
43143;DHT22;28750;59.842;17.584;2023-07-13T13:42:45;23.90;11.50
43143;DHT22;28750;59.842;17.584;2023-07-13T13:45:13;23.20;9.50
43143;DHT22;28750;59.842;17.584;2023-07-13T13:47:42;24.50;16.90
43143;DHT22;28750;59.842;17.584;2023-07-13T13:50:15;24.60;1.00
43143;DHT22;28750;59.842;17.584;2023-07-13T13:52:43;23.70;1.00
43143;DHT22;28750;59.842;17.584;2023-07-13T13:55:21;23.60;70.60
43143;DHT22;28750;59.842;17.584;2023-07-13T13:57:50;23.30;49.00
43143;DHT22;28750;59.842;17.584;2023-07-13T14:00:17;22.80;52.70
43143;DHT22;28750;59.842;17.584;2023-07-13T14:02:47;22.70;74.30
43143;DHT22;28750;59.842;17.584;2023-07-13T14:05:21;22.40;99.90
43143;DHT22;28750;59.842;17.584;2023-07-13T14:07:48;22.40;99.90
43143;DHT22;28750;59.842;17.584;2023-07-13T14:10:18;23.20;99.90
43143;DHT22;28750;59.842;17.584;2023-07-13T14:12:51;23.60;92.10
43143;DHT22;28750;59.842;17.584;2023-07-13T14:15:28;24.20;99.90
43143;DHT22;28750;59.842;17.584;2023-07-13T14:17:56;23.70;39.70
43143;DHT22;28750;59.842;17.584;2023-07-13T14:20:24;22.90;91.40
43143;DHT22;28750;59.842;17.584;2023-07-13T14:22:53;23.10;99.90
43143;DHT22;28750;59.842;17.584;2023-07-13T14:25:21;23.10;99.90
43143;DHT22;28750;59.842;17.584;2023-07-13T14:27:53;23.10;99.90
43143;DHT22;28750;59.842;17.584;2023-07-13T14:30:25;23.70;99.90
43143;DHT22;28750;59.842;17.584;2023-07-13T14:32:52;23.50;95.20
43143;DHT22;28750;59.842;17.584;2023-07-13T14:35:21;23.70;59.00
43143;DHT22;28750;59.842;17.584;2023-07-13T14:37:50;23.20;88.00
43143;DHT22;28750;59.842;17.584;2023-07-13T14:40:22;23.10;99.90
43143;DHT22;28750;59.842;17.584;2023-07-13T14:42:51;22.80;95.90
43143;DHT22;28750;59.842;17.584;2023-07-13T14:45:20;23.00;74.90
43143;DHT22;28750;59.842;17.584;2023-07-13T14:47:47;23.70;70.90
43143;DHT22;28750;59.842;17.584;2023-07-13T14:52:42;23.10;15.20
43143;DHT22;28750;59.842;17.584;2023-07-13T14:55:12;23.30;25.50
43143;DHT22;28750;59.842;17.584;2023-07-13T14:57:39;22.80;51.70
43143;DHT22;28750;59.842;17.584;2023-07-13T15:00:24;22.10;5.20
43143;DHT22;28750;59.842;17.584;2023-07-13T15:02:53;21.50;28.80
43143;DHT22;28750;59.842;17.584;2023-07-13T15:05:28;21.40;55.90
43143;DHT22;28750;59.842;17.584;2023-07-13T15:07:59;21.40;54.00
43143;DHT22;28750;59.842;17.584;2023-07-13T15:10:27;21.80;98.30
43143;DHT22;28750;59.842;17.584;2023-07-13T15:13:15;22.40;99.90
43143;DHT22;28750;59.842;17.584;2023-07-13T15:15:48;22.00;89.10
43143;DHT22;28750;59.842;17.584;2023-07-13T15:18:18;22.10;84.00
43143;DHT22;28750;59.842;17.584;2023-07-13T15:20:47;21.80;99.90
43143;DHT22;28750;59.842;17.584;2023-07-13T15:23:16;21.90;99.90
43143;DHT22;28750;59.842;17.584;2023-07-13T15:25:44;21.90;99.90
43143;DHT22;28750;59.842;17.584;2023-07-13T15:28:11;22.00;99.90
43143;DHT22;28750;59.842;17.584;2023-07-13T15:30:40;21.90;99.90
43143;DHT22;28750;59.842;17.584;2023-07-13T15:35:49;21.50;99.90
43143;DHT22;28750;59.842;17.584;2023-07-13T15:38:22;21.30;99.90
43143;DHT22;28750;59.842;17.584;2023-07-13T15:40:50;21.50;99.90
43143;DHT22;28750;59.842;17.584;2023-07-13T15:43:19;21.50;99.90
43143;DHT22;28750;59.842;17.584;2023-07-13T15:45:47;21.30;99.90
43143;DHT22;28750;59.842;17.584;2023-07-13T15:48:18;21.20;99.90
43143;DHT22;28750;59.842;17.584;2023-07-13T15:50:51;21.10;99.90
43143;DHT22;28750;59.842;17.584;2023-07-13T15:53:28;21.20;99.90
43143;DHT22;28750;59.842;17.584;2023-07-13T15:55:56;21.00;99.90
43143;DHT22;28750;59.842;17.584;2023-07-13T15:58:24;20.90;99.90
43143;DHT22;28750;59.842;17.584;2023-07-13T16:00:52;21.00;99.90
43143;DHT22;28750;59.842;17.584;2023-07-13T16:03:20;21.00;99.90
43143;DHT22;28750;59.842;17.584;2023-07-13T16:05:48;21.00;99.90
43143;DHT22;28750;59.842;17.584;2023-07-13T16:08:28;21.30;99.90